Terminal Aerodrome Forecast
Issued by NWS

Home | Current Version | Previous Version | Text Only | Print | Product List | Glossary On
Versions: 1 2 3 4 5 6 7 8 9 10 11 12 13
000
FTUS43 KLSX 221243 AAA
TAFSUS
TAF AMD
KSUS 221243Z 2213/2312 04010KT P6SM -SHRA OVC040
     FM221900 03013G20KT P6SM VCSH OVC045
     FM230000 02011KT P6SM OVC070
     FM230600 01007KT P6SM SCT100=

USA.gov is the U.S. government's official web portal to all federal, state and local government web resources and services.